Terminal Aerodrome Forecast
Issued by NWS

Home | Current Version | Previous Version | Text Only | Print | Product List | Glossary On
Versions: 1 2 3 4 5 6 7 8 9 10 11 12 13 14 15 16 17 18 19 20 21
000
FTUS43 KDVN 202000 AAA
TAFBRL
TAF AMD
KBRL 202011Z 2020/2118 15005KT 5SM HZ VCSH OVC010
      TEMPO 2020/2023 3SM -SN BR OVC008
     FM210200 16005KT 4SM BR VCSH OVC012=

USA.gov is the U.S. government's official web portal to all federal, state and local government web resources and services.